sensor_id;sensor_type;location;lat;lon;timestamp;temperature;humidity
27781;DHT22;15167;1.318;103.762;2023-03-05T00:00:51;23.70;99.90
27781;DHT22;15167;1.318;103.762;2023-03-05T00:03:17;23.80;99.90
27781;DHT22;15167;1.318;103.762;2023-03-05T00:05:43;23.70;99.90
27781;DHT22;15167;1.318;103.762;2023-03-05T00:08:09;23.70;99.90
27781;DHT22;15167;1.318;103.762;2023-03-05T00:10:35;23.70;99.90
27781;DHT22;15167;1.318;103.762;2023-03-05T00:13:01;23.70;99.90
27781;DHT22;15167;1.318;103.762;2023-03-05T00:15:27;23.70;99.90
27781;DHT22;15167;1.318;103.762;2023-03-05T00:17:53;23.80;99.90
27781;DHT22;15167;1.318;103.762;2023-03-05T00:20:20;23.80;99.90
27781;DHT22;15167;1.318;103.762;2023-03-05T00:22:46;23.80;99.90
27781;DHT22;15167;1.318;103.762;2023-03-05T00:25:12;23.80;99.90
27781;DHT22;15167;1.318;103.762;2023-03-05T00:27:38;23.80;99.90
27781;DHT22;15167;1.318;103.762;2023-03-05T00:30:04;23.80;99.90
27781;DHT22;15167;1.318;103.762;2023-03-05T00:32:30;23.80;99.90
27781;DHT22;15167;1.318;103.762;2023-03-05T00:34:56;23.90;99.90
27781;DHT22;15167;1.318;103.762;2023-03-05T00:37:22;23.90;99.90
27781;DHT22;15167;1.318;103.762;2023-03-05T00:39:48;23.90;99.90
27781;DHT22;15167;1.318;103.762;2023-03-05T00:42:15;23.90;99.90
27781;DHT22;15167;1.318;103.762;2023-03-05T00:44:41;24.00;99.90
27781;DHT22;15167;1.318;103.762;2023-03-05T00:47:07;24.10;99.90
27781;DHT22;15167;1.318;103.762;2023-03-05T00:49:33;24.00;99.90
27781;DHT22;15167;1.318;103.762;2023-03-05T00:52:00;24.10;99.90
27781;DHT22;15167;1.318;103.762;2023-03-05T00:54:26;24.10;99.90
27781;DHT22;15167;1.318;103.762;2023-03-05T00:56:52;24.00;99.90
27781;DHT22;15167;1.318;103.762;2023-03-05T00:59:18;24.10;99.90
27781;DHT22;15167;1.318;103.762;2023-03-05T01:01:44;24.00;99.90
27781;DHT22;15167;1.318;103.762;2023-03-05T01:04:10;24.00;99.90
27781;DHT22;15167;1.318;103.762;2023-03-05T01:06:36;24.10;99.90
27781;DHT22;15167;1.318;103.762;2023-03-05T01:09:07;24.20;99.90
27781;DHT22;15167;1.318;103.762;2023-03-05T01:11:33;24.30;99.90
27781;DHT22;15167;1.318;103.762;2023-03-05T01:13:59;24.30;99.90
27781;DHT22;15167;1.318;103.762;2023-03-05T01:16:25;24.30;99.90
27781;DHT22;15167;1.318;103.762;2023-03-05T01:18:51;24.30;99.90
27781;DHT22;15167;1.318;103.762;2023-03-05T01:21:17;24.10;99.90
27781;DHT22;15167;1.318;103.762;2023-03-05T01:23:43;24.10;99.90
27781;DHT22;15167;1.318;103.762;2023-03-05T01:26:09;24.00;99.90
27781;DHT22;15167;1.318;103.762;2023-03-05T01:28:36;24.00;99.90
27781;DHT22;15167;1.318;103.762;2023-03-05T01:31:05;24.00;99.90
27781;DHT22;15167;1.318;103.762;2023-03-05T01:33:31;24.00;99.90
27781;DHT22;15167;1.318;103.762;2023-03-05T01:35:57;24.10;99.90
27781;DHT22;15167;1.318;103.762;2023-03-05T01:38:24;24.10;99.90
27781;DHT22;15167;1.318;103.762;2023-03-05T01:40:50;24.20;99.90
27781;DHT22;15167;1.318;103.762;2023-03-05T01:43:24;24.20;99.90
27781;DHT22;15167;1.318;103.762;2023-03-05T01:48:35;24.40;99.90
27781;DHT22;15167;1.318;103.762;2023-03-05T01:51:02;24.40;99.90
27781;DHT22;15167;1.318;103.762;2023-03-05T01:53:28;24.40;99.90
27781;DHT22;15167;1.318;103.762;2023-03-05T01:55:54;24.40;99.90
27781;DHT22;15167;1.318;103.762;2023-03-05T01:58:20;24.40;99.90
27781;DHT22;15167;1.318;103.762;2023-03-05T02:00:47;24.50;99.90
27781;DHT22;15167;1.318;103.762;2023-03-05T02:03:15;24.50;99.90
27781;DHT22;15167;1.318;103.762;2023-03-05T02:05:41;24.50;99.90
27781;DHT22;15167;1.318;103.762;2023-03-05T02:08:10;24.50;99.90
27781;DHT22;15167;1.318;103.762;2023-03-05T02:10:37;24.60;99.90
27781;DHT22;15167;1.318;103.762;2023-03-05T02:13:09;24.80;99.90
27781;DHT22;15167;1.318;103.762;2023-03-05T02:15:35;24.80;99.90
27781;DHT22;15167;1.318;103.762;2023-03-05T02:18:03;24.80;99.90
27781;DHT22;15167;1.318;103.762;2023-03-05T02:20:30;24.80;99.90
27781;DHT22;15167;1.318;103.762;2023-03-05T02:22:56;25.00;99.90
27781;DHT22;15167;1.318;103.762;2023-03-05T02:25:24;25.00;99.90
27781;DHT22;15167;1.318;103.762;2023-03-05T02:28:05;25.10;99.90
27781;DHT22;15167;1.318;103.762;2023-03-05T02:30:32;25.10;99.90
27781;DHT22;15167;1.318;103.762;2023-03-05T02:33:00;25.20;99.90
27781;DHT22;15167;1.318;103.762;2023-03-05T02:35:26;25.20;99.90
27781;DHT22;15167;1.318;103.762;2023-03-05T02:37:52;25.20;99.90
27781;DHT22;15167;1.318;103.762;2023-03-05T02:40:18;25.30;99.90
27781;DHT22;15167;1.318;103.762;2023-03-05T02:42:44;25.30;99.90
27781;DHT22;15167;1.318;103.762;2023-03-05T02:45:11;25.30;99.90
27781;DHT22;15167;1.318;103.762;2023-03-05T02:47:38;25.30;99.90
27781;DHT22;15167;1.318;103.762;2023-03-05T02:50:04;25.40;99.90
27781;DHT22;15167;1.318;103.762;2023-03-05T02:52:31;25.70;99.90
27781;DHT22;15167;1.318;103.762;2023-03-05T02:54:57;25.80;99.90
27781;DHT22;15167;1.318;103.762;2023-03-05T02:57:23;25.70;99.90
27781;DHT22;15167;1.318;103.762;2023-03-05T02:59:49;25.70;99.90
27781;DHT22;15167;1.318;103.762;2023-03-05T03:02:15;25.90;99.90
27781;DHT22;15167;1.318;103.762;2023-03-05T03:04:42;26.00;99.90
27781;DHT22;15167;1.318;103.762;2023-03-05T03:07:09;25.90;99.90
27781;DHT22;15167;1.318;103.762;2023-03-05T03:09:35;25.70;99.90
27781;DHT22;15167;1.318;103.762;2023-03-05T03:12:02;26.00;99.90
27781;DHT22;15167;1.318;103.762;2023-03-05T03:14:32;26.10;99.90
27781;DHT22;15167;1.318;103.762;2023-03-05T03:17:02;26.20;99.90
27781;DHT22;15167;1.318;103.762;2023-03-05T03:19:28;26.50;99.90
27781;DHT22;15167;1.318;103.762;2023-03-05T03:21:54;26.80;99.90
27781;DHT22;15167;1.318;103.762;2023-03-05T03:24:20;27.00;99.90
27781;DHT22;15167;1.318;103.762;2023-03-05T03:26:46;26.70;99.90
27781;DHT22;15167;1.318;103.762;2023-03-05T03:29:12;26.50;99.90
27781;DHT22;15167;1.318;103.762;2023-03-05T03:31:38;26.50;99.90
27781;DHT22;15167;1.318;103.762;2023-03-05T03:34:06;26.40;99.90
27781;DHT22;15167;1.318;103.762;2023-03-05T03:36:32;26.50;99.90
27781;DHT22;15167;1.318;103.762;2023-03-05T03:38:59;26.60;99.90
27781;DHT22;15167;1.318;103.762;2023-03-05T03:41:25;26.50;99.90
27781;DHT22;15167;1.318;103.762;2023-03-05T03:43:51;26.50;99.90
27781;DHT22;15167;1.318;103.762;2023-03-05T03:46:17;26.50;1.00
27781;DHT22;15167;1.318;103.762;2023-03-05T03:48:43;26.50;1.00
27781;DHT22;15167;1.318;103.762;2023-03-05T03:51:09;26.70;1.00
27781;DHT22;15167;1.318;103.762;2023-03-05T03:53:35;26.80;99.90
27781;DHT22;15167;1.318;103.762;2023-03-05T03:56:01;26.60;99.90
27781;DHT22;15167;1.318;103.762;2023-03-05T03:58:28;26.60;99.90
27781;DHT22;15167;1.318;103.762;2023-03-05T04:00:54;26.90;99.90
27781;DHT22;15167;1.318;103.762;2023-03-05T04:03:20;26.90;99.90
27781;DHT22;15167;1.318;103.762;2023-03-05T04:05:46;27.00;99.90
27781;DHT22;15167;1.318;103.762;2023-03-05T04:08:12;27.00;99.90
27781;DHT22;15167;1.318;103.762;2023-03-05T04:10:38;27.20;99.90
27781;DHT22;15167;1.318;103.762;2023-03-05T04:13:05;27.40;56.60
27781;DHT22;15167;1.318;103.762;2023-03-05T04:15:31;27.30;1.00
27781;DHT22;15167;1.318;103.762;2023-03-05T04:17:57;27.20;9.10
27781;DHT22;15167;1.318;103.762;2023-03-05T04:20:23;27.00;62.40
27781;DHT22;15167;1.318;103.762;2023-03-05T04:22:50;27.10;37.60
27781;DHT22;15167;1.318;103.762;2023-03-05T04:25:16;27.40;34.40
27781;DHT22;15167;1.318;103.762;2023-03-05T04:27:42;27.50;1.00
27781;DHT22;15167;1.318;103.762;2023-03-05T04:30:09;27.30;1.00
27781;DHT22;15167;1.318;103.762;2023-03-05T04:32:36;27.20;7.40
27781;DHT22;15167;1.318;103.762;2023-03-05T04:35:02;27.20;19.40
27781;DHT22;15167;1.318;103.762;2023-03-05T04:37:28;27.30;23.00
27781;DHT22;15167;1.318;103.762;2023-03-05T04:39:54;27.30;18.30
27781;DHT22;15167;1.318;103.762;2023-03-05T04:42:20;27.30;47.10
27781;DHT22;15167;1.318;103.762;2023-03-05T04:44:47;27.30;1.00
27781;DHT22;15167;1.318;103.762;2023-03-05T04:47:14;27.30;1.00
27781;DHT22;15167;1.318;103.762;2023-03-05T04:49:40;27.30;10.60
27781;DHT22;15167;1.318;103.762;2023-03-05T04:52:06;27.60;1.00
27781;DHT22;15167;1.318;103.762;2023-03-05T04:54:32;27.60;1.00
27781;DHT22;15167;1.318;103.762;2023-03-05T04:56:58;27.90;1.00
27781;DHT22;15167;1.318;103.762;2023-03-05T04:59:25;28.50;1.00
27781;DHT22;15167;1.318;103.762;2023-03-05T05:01:51;28.80;99.90
27781;DHT22;15167;1.318;103.762;2023-03-05T05:04:17;29.00;99.90
27781;DHT22;15167;1.318;103.762;2023-03-05T05:06:43;29.00;99.90
27781;DHT22;15167;1.318;103.762;2023-03-05T05:09:09;28.70;99.90
27781;DHT22;15167;1.318;103.762;2023-03-05T05:11:35;28.70;99.90
27781;DHT22;15167;1.318;103.762;2023-03-05T05:14:01;28.50;99.90
27781;DHT22;15167;1.318;103.762;2023-03-05T05:16:28;28.40;99.90
27781;DHT22;15167;1.318;103.762;2023-03-05T05:18:55;28.40;1.00
27781;DHT22;15167;1.318;103.762;2023-03-05T05:21:21;28.60;99.90
27781;DHT22;15167;1.318;103.762;2023-03-05T05:23:47;28.50;99.90
27781;DHT22;15167;1.318;103.762;2023-03-05T05:26:13;28.40;99.90
27781;DHT22;15167;1.318;103.762;2023-03-05T05:28:40;28.20;99.90
27781;DHT22;15167;1.318;103.762;2023-03-05T05:31:09;27.90;99.90
27781;DHT22;15167;1.318;103.762;2023-03-05T05:33:36;27.70;1.00
27781;DHT22;15167;1.318;103.762;2023-03-05T05:36:03;27.70;1.00
27781;DHT22;15167;1.318;103.762;2023-03-05T05:38:29;27.80;1.00
27781;DHT22;15167;1.318;103.762;2023-03-05T05:41:00;28.10;1.00
27781;DHT22;15167;1.318;103.762;2023-03-05T05:43:26;28.20;99.90
27781;DHT22;15167;1.318;103.762;2023-03-05T05:45:52;28.30;99.90
27781;DHT22;15167;1.318;103.762;2023-03-05T05:48:18;28.40;99.90
27781;DHT22;15167;1.318;103.762;2023-03-05T05:50:44;28.40;99.90
27781;DHT22;15167;1.318;103.762;2023-03-05T05:53:11;28.40;99.90
27781;DHT22;15167;1.318;103.762;2023-03-05T05:55:38;28.50;99.90
27781;DHT22;15167;1.318;103.762;2023-03-05T05:58:04;28.80;99.90
27781;DHT22;15167;1.318;103.762;2023-03-05T06:00:30;29.20;99.90
27781;DHT22;15167;1.318;103.762;2023-03-05T06:02:57;29.50;99.90
27781;DHT22;15167;1.318;103.762;2023-03-05T06:05:23;29.90;99.90
27781;DHT22;15167;1.318;103.762;2023-03-05T06:07:49;30.20;99.90
27781;DHT22;15167;1.318;103.762;2023-03-05T06:10:15;30.20;99.90
27781;DHT22;15167;1.318;103.762;2023-03-05T06:12:41;29.90;99.90
27781;DHT22;15167;1.318;103.762;2023-03-05T06:15:08;29.60;99.90
27781;DHT22;15167;1.318;103.762;2023-03-05T06:17:34;29.30;99.90
27781;DHT22;15167;1.318;103.762;2023-03-05T06:20:00;28.90;99.90
27781;DHT22;15167;1.318;103.762;2023-03-05T06:22:26;28.20;52.90
27781;DHT22;15167;1.318;103.762;2023-03-05T06:24:52;27.40;99.90
27781;DHT22;15167;1.318;103.762;2023-03-05T06:27:19;27.00;99.90
27781;DHT22;15167;1.318;103.762;2023-03-05T06:29:45;26.70;99.90
27781;DHT22;15167;1.318;103.762;2023-03-05T06:32:11;26.30;99.90
27781;DHT22;15167;1.318;103.762;2023-03-05T06:34:37;25.90;99.90
27781;DHT22;15167;1.318;103.762;2023-03-05T06:37:03;25.80;99.90
27781;DHT22;15167;1.318;103.762;2023-03-05T06:39:29;26.00;99.90
27781;DHT22;15167;1.318;103.762;2023-03-05T06:41:56;26.10;99.90
27781;DHT22;15167;1.318;103.762;2023-03-05T06:44:22;26.40;95.30
27781;DHT22;15167;1.318;103.762;2023-03-05T06:46:48;26.90;1.00
27781;DHT22;15167;1.318;103.762;2023-03-05T06:49:14;27.30;1.00
27781;DHT22;15167;1.318;103.762;2023-03-05T06:51:40;27.60;1.00
27781;DHT22;15167;1.318;103.762;2023-03-05T06:54:11;28.00;99.90
27781;DHT22;15167;1.318;103.762;2023-03-05T06:56:38;28.30;99.90
27781;DHT22;15167;1.318;103.762;2023-03-05T06:59:04;28.10;99.90
27781;DHT22;15167;1.318;103.762;2023-03-05T07:01:30;28.30;99.90
27781;DHT22;15167;1.318;103.762;2023-03-05T07:03:56;28.60;99.90
27781;DHT22;15167;1.318;103.762;2023-03-05T07:06:27;28.70;99.90
27781;DHT22;15167;1.318;103.762;2023-03-05T07:08:54;28.60;99.90
27781;DHT22;15167;1.318;103.762;2023-03-05T07:11:21;28.50;99.90
27781;DHT22;15167;1.318;103.762;2023-03-05T07:13:47;28.10;99.90
27781;DHT22;15167;1.318;103.762;2023-03-05T07:16:15;28.10;99.90
27781;DHT22;15167;1.318;103.762;2023-03-05T07:18:42;27.80;1.00
27781;DHT22;15167;1.318;103.762;2023-03-05T07:21:08;27.60;1.00
27781;DHT22;15167;1.318;103.762;2023-03-05T07:23:35;27.40;1.00
27781;DHT22;15167;1.318;103.762;2023-03-05T07:26:02;27.10;99.90
27781;DHT22;15167;1.318;103.762;2023-03-05T07:28:28;27.10;99.90
27781;DHT22;15167;1.318;103.762;2023-03-05T07:30:55;27.20;99.90
27781;DHT22;15167;1.318;103.762;2023-03-05T07:33:22;27.40;99.90
27781;DHT22;15167;1.318;103.762;2023-03-05T07:35:48;27.40;99.90
27781;DHT22;15167;1.318;103.762;2023-03-05T07:38:14;27.50;99.90
27781;DHT22;15167;1.318;103.762;2023-03-05T07:40:40;27.80;99.90
27781;DHT22;15167;1.318;103.762;2023-03-05T07:43:06;28.10;39.90
27781;DHT22;15167;1.318;103.762;2023-03-05T07:45:33;28.40;1.00
27781;DHT22;15167;1.318;103.762;2023-03-05T07:47:59;28.50;1.00
27781;DHT22;15167;1.318;103.762;2023-03-05T07:50:25;28.60;1.00
27781;DHT22;15167;1.318;103.762;2023-03-05T07:52:51;28.50;1.00
27781;DHT22;15167;1.318;103.762;2023-03-05T07:55:17;28.60;1.00
27781;DHT22;15167;1.318;103.762;2023-03-05T07:57:43;28.60;1.00
27781;DHT22;15167;1.318;103.762;2023-03-05T08:00:10;28.80;1.00
27781;DHT22;15167;1.318;103.762;2023-03-05T08:02:36;28.90;99.90
27781;DHT22;15167;1.318;103.762;2023-03-05T08:05:02;29.00;99.90
27781;DHT22;15167;1.318;103.762;2023-03-05T08:07:28;29.10;99.90
27781;DHT22;15167;1.318;103.762;2023-03-05T08:09:54;29.00;99.90
27781;DHT22;15167;1.318;103.762;2023-03-05T08:12:20;28.80;1.00
27781;DHT22;15167;1.318;103.762;2023-03-05T08:14:47;28.80;1.00
27781;DHT22;15167;1.318;103.762;2023-03-05T08:17:13;28.80;1.00
27781;DHT22;15167;1.318;103.762;2023-03-05T08:19:39;28.80;99.90
27781;DHT22;15167;1.318;103.762;2023-03-05T08:22:06;28.60;1.00
27781;DHT22;15167;1.318;103.762;2023-03-05T08:24:32;28.20;28.30
27781;DHT22;15167;1.318;103.762;2023-03-05T08:26:59;27.70;9.70
27781;DHT22;15167;1.318;103.762;2023-03-05T08:29:25;27.50;1.00
27781;DHT22;15167;1.318;103.762;2023-03-05T08:31:51;27.50;1.00
27781;DHT22;15167;1.318;103.762;2023-03-05T08:34:18;27.50;1.00
27781;DHT22;15167;1.318;103.762;2023-03-05T08:36:45;27.50;1.00
27781;DHT22;15167;1.318;103.762;2023-03-05T08:39:11;27.30;1.00
27781;DHT22;15167;1.318;103.762;2023-03-05T08:41:37;27.10;45.30
27781;DHT22;15167;1.318;103.762;2023-03-05T08:44:03;26.80;99.90
27781;DHT22;15167;1.318;103.762;2023-03-05T08:46:30;26.60;99.90
27781;DHT22;15167;1.318;103.762;2023-03-05T08:48:56;26.40;99.90
27781;DHT22;15167;1.318;103.762;2023-03-05T08:51:22;26.10;99.90
27781;DHT22;15167;1.318;103.762;2023-03-05T08:53:55;25.50;99.90
27781;DHT22;15167;1.318;103.762;2023-03-05T08:56:22;24.90;1.00
27781;DHT22;15167;1.318;103.762;2023-03-05T08:58:50;24.80;13.60
27781;DHT22;15167;1.318;103.762;2023-03-05T09:01:17;25.00;1.00
27781;DHT22;15167;1.318;103.762;2023-03-05T09:03:43;25.00;1.00
27781;DHT22;15167;1.318;103.762;2023-03-05T09:06:09;25.10;1.00
27781;DHT22;15167;1.318;103.762;2023-03-05T09:08:37;25.20;1.00
27781;DHT22;15167;1.318;103.762;2023-03-05T09:11:04;25.40;99.90
27781;DHT22;15167;1.318;103.762;2023-03-05T09:13:31;25.50;99.90
27781;DHT22;15167;1.318;103.762;2023-03-05T09:16:01;25.50;99.90
27781;DHT22;15167;1.318;103.762;2023-03-05T09:18:28;25.40;99.90
27781;DHT22;15167;1.318;103.762;2023-03-05T09:20:54;25.40;99.90
27781;DHT22;15167;1.318;103.762;2023-03-05T09:23:21;25.30;99.90
27781;DHT22;15167;1.318;103.762;2023-03-05T09:25:47;25.20;99.90
27781;DHT22;15167;1.318;103.762;2023-03-05T09:28:14;25.20;99.90
27781;DHT22;15167;1.318;103.762;2023-03-05T09:30:40;25.20;99.90
27781;DHT22;15167;1.318;103.762;2023-03-05T09:33:07;25.10;99.90
27781;DHT22;15167;1.318;103.762;2023-03-05T09:35:33;25.20;99.90
27781;DHT22;15167;1.318;103.762;2023-03-05T09:38:00;25.20;99.90
27781;DHT22;15167;1.318;103.762;2023-03-05T09:40:26;25.30;99.90
27781;DHT22;15167;1.318;103.762;2023-03-05T09:43:09;25.50;99.90
27781;DHT22;15167;1.318;103.762;2023-03-05T09:45:57;25.60;99.90
27781;DHT22;15167;1.318;103.762;2023-03-05T09:48:33;25.50;99.90
27781;DHT22;15167;1.318;103.762;2023-03-05T09:51:06;25.70;99.90
27781;DHT22;15167;1.318;103.762;2023-03-05T09:53:37;25.60;99.90
27781;DHT22;15167;1.318;103.762;2023-03-05T09:56:29;25.60;99.90
27781;DHT22;15167;1.318;103.762;2023-03-05T09:58:55;25.50;99.90
27781;DHT22;15167;1.318;103.762;2023-03-05T10:01:36;25.50;99.90
27781;DHT22;15167;1.318;103.762;2023-03-05T10:06:55;25.40;99.90
27781;DHT22;15167;1.318;103.762;2023-03-05T10:12:17;25.60;99.90
27781;DHT22;15167;1.318;103.762;2023-03-05T10:14:45;25.60;99.90
27781;DHT22;15167;1.318;103.762;2023-03-05T10:17:19;25.70;99.90
27781;DHT22;15167;1.318;103.762;2023-03-05T10:27:42;25.70;99.90
27781;DHT22;15167;1.318;103.762;2023-03-05T10:30:17;25.70;99.90
27781;DHT22;15167;1.318;103.762;2023-03-05T10:45:39;25.60;99.90
27781;DHT22;15167;1.318;103.762;2023-03-05T10:51:03;25.50;99.90
27781;DHT22;15167;1.318;103.762;2023-03-05T10:53:53;25.50;99.90
27781;DHT22;15167;1.318;103.762;2023-03-05T10:56:20;25.40;99.90
27781;DHT22;15167;1.318;103.762;2023-03-05T10:58:47;25.50;99.90
27781;DHT22;15167;1.318;103.762;2023-03-05T11:03:50;25.40;99.90
27781;DHT22;15167;1.318;103.762;2023-03-05T11:08:52;25.40;99.90
27781;DHT22;15167;1.318;103.762;2023-03-05T11:11:18;25.30;99.90
27781;DHT22;15167;1.318;103.762;2023-03-05T11:13:59;25.30;99.90
27781;DHT22;15167;1.318;103.762;2023-03-05T11:16:44;25.30;99.90
27781;DHT22;15167;1.318;103.762;2023-03-05T11:19:16;25.30;99.90
27781;DHT22;15167;1.318;103.762;2023-03-05T11:21:43;25.20;99.90
27781;DHT22;15167;1.318;103.762;2023-03-05T11:24:16;25.20;99.90
27781;DHT22;15167;1.318;103.762;2023-03-05T11:26:53;25.20;1.00
27781;DHT22;15167;1.318;103.762;2023-03-05T11:31:45;25.20;1.00
27781;DHT22;15167;1.318;103.762;2023-03-05T11:39:20;25.10;1.00
27781;DHT22;15167;1.318;103.762;2023-03-05T11:41:53;25.10;1.00
27781;DHT22;15167;1.318;103.762;2023-03-05T11:44:20;25.10;1.00
27781;DHT22;15167;1.318;103.762;2023-03-05T11:46:49;25.10;1.00
27781;DHT22;15167;1.318;103.762;2023-03-05T11:49:20;25.10;1.00
27781;DHT22;15167;1.318;103.762;2023-03-05T11:52:03;25.10;1.00
27781;DHT22;15167;1.318;103.762;2023-03-05T11:54:35;25.00;1.00
27781;DHT22;15167;1.318;103.762;2023-03-05T11:57:04;25.10;1.00
27781;DHT22;15167;1.318;103.762;2023-03-05T11:59:33;25.10;1.00
27781;DHT22;15167;1.318;103.762;2023-03-05T12:02:00;25.10;1.00
27781;DHT22;15167;1.318;103.762;2023-03-05T12:04:26;25.00;1.00
27781;DHT22;15167;1.318;103.762;2023-03-05T12:07:01;25.00;1.00
27781;DHT22;15167;1.318;103.762;2023-03-05T12:14:37;25.00;1.00
27781;DHT22;15167;1.318;103.762;2023-03-05T12:17:07;25.10;1.00
27781;DHT22;15167;1.318;103.762;2023-03-05T12:19:57;25.10;1.00
27781;DHT22;15167;1.318;103.762;2023-03-05T12:22:30;25.10;1.00
27781;DHT22;15167;1.318;103.762;2023-03-05T12:27:41;25.20;1.00
27781;DHT22;15167;1.318;103.762;2023-03-05T12:30:29;25.20;1.00
27781;DHT22;15167;1.318;103.762;2023-03-05T12:32:54;25.10;1.00
27781;DHT22;15167;1.318;103.762;2023-03-05T12:35:33;25.10;1.00
27781;DHT22;15167;1.318;103.762;2023-03-05T12:38:04;25.10;1.00
27781;DHT22;15167;1.318;103.762;2023-03-05T12:40:34;25.10;1.00
27781;DHT22;15167;1.318;103.762;2023-03-05T12:45:30;25.10;1.00
27781;DHT22;15167;1.318;103.762;2023-03-05T12:53:12;25.00;1.00
27781;DHT22;15167;1.318;103.762;2023-03-05T13:03:43;25.00;1.00
27781;DHT22;15167;1.318;103.762;2023-03-05T13:08:54;25.00;1.00
27781;DHT22;15167;1.318;103.762;2023-03-05T13:11:20;25.00;1.00
27781;DHT22;15167;1.318;103.762;2023-03-05T13:13:48;25.00;1.00
27781;DHT22;15167;1.318;103.762;2023-03-05T13:16:18;24.90;1.00
27781;DHT22;15167;1.318;103.762;2023-03-05T13:18:46;24.90;1.00
27781;DHT22;15167;1.318;103.762;2023-03-05T13:21:13;24.90;99.90
27781;DHT22;15167;1.318;103.762;2023-03-05T13:23:49;24.80;99.90
27781;DHT22;15167;1.318;103.762;2023-03-05T13:26:26;24.80;99.90
27781;DHT22;15167;1.318;103.762;2023-03-05T13:29:12;24.80;99.90
27781;DHT22;15167;1.318;103.762;2023-03-05T13:31:45;24.80;99.90
27781;DHT22;15167;1.318;103.762;2023-03-05T13:34:21;24.70;99.90
27781;DHT22;15167;1.318;103.762;2023-03-05T13:39:27;24.70;99.90
27781;DHT22;15167;1.318;103.762;2023-03-05T13:41:59;24.80;99.90
27781;DHT22;15167;1.318;103.762;2023-03-05T13:44:26;24.80;99.90
27781;DHT22;15167;1.318;103.762;2023-03-05T13:47:04;24.80;99.90
27781;DHT22;15167;1.318;103.762;2023-03-05T13:49:31;24.80;99.90
27781;DHT22;15167;1.318;103.762;2023-03-05T13:51:57;24.80;99.90
27781;DHT22;15167;1.318;103.762;2023-03-05T13:54:26;24.70;99.90
27781;DHT22;15167;1.318;103.762;2023-03-05T13:56:54;24.70;99.90
27781;DHT22;15167;1.318;103.762;2023-03-05T13:59:22;24.70;99.90
27781;DHT22;15167;1.318;103.762;2023-03-05T14:01:49;24.70;99.90
27781;DHT22;15167;1.318;103.762;2023-03-05T14:04:19;24.70;99.90
27781;DHT22;15167;1.318;103.762;2023-03-05T14:06:54;24.60;99.90
27781;DHT22;15167;1.318;103.762;2023-03-05T14:09:30;24.60;99.90
27781;DHT22;15167;1.318;103.762;2023-03-05T14:14:55;24.60;99.90
27781;DHT22;15167;1.318;103.762;2023-03-05T14:22:35;24.50;99.90
27781;DHT22;15167;1.318;103.762;2023-03-05T14:25:23;24.50;99.90
27781;DHT22;15167;1.318;103.762;2023-03-05T14:27:49;24.60;99.90
27781;DHT22;15167;1.318;103.762;2023-03-05T14:30:16;24.50;99.90
27781;DHT22;15167;1.318;103.762;2023-03-05T14:32:44;24.50;99.90
27781;DHT22;15167;1.318;103.762;2023-03-05T14:35:20;24.50;99.90
27781;DHT22;15167;1.318;103.762;2023-03-05T14:37:48;24.50;99.90
27781;DHT22;15167;1.318;103.762;2023-03-05T14:40:19;24.50;99.90
27781;DHT22;15167;1.318;103.762;2023-03-05T14:42:55;24.50;99.90
27781;DHT22;15167;1.318;103.762;2023-03-05T14:45:22;24.50;99.90
27781;DHT22;15167;1.318;103.762;2023-03-05T14:47:50;24.50;99.90
27781;DHT22;15167;1.318;103.762;2023-03-05T14:50:17;24.60;99.90
27781;DHT22;15167;1.318;103.762;2023-03-05T14:52:44;24.60;99.90
27781;DHT22;15167;1.318;103.762;2023-03-05T14:55:15;24.60;99.90
27781;DHT22;15167;1.318;103.762;2023-03-05T14:57:41;24.60;99.90
27781;DHT22;15167;1.318;103.762;2023-03-05T15:02:42;24.60;99.90
27781;DHT22;15167;1.318;103.762;2023-03-05T15:05:09;24.60;99.90
27781;DHT22;15167;1.318;103.762;2023-03-05T15:07:35;24.60;99.90
27781;DHT22;15167;1.318;103.762;2023-03-05T15:10:01;24.60;99.90
27781;DHT22;15167;1.318;103.762;2023-03-05T15:12:28;24.60;99.90
27781;DHT22;15167;1.318;103.762;2023-03-05T15:14:54;24.70;99.90
27781;DHT22;15167;1.318;103.762;2023-03-05T15:17:22;24.60;99.90
27781;DHT22;15167;1.318;103.762;2023-03-05T15:19:48;24.70;99.90
27781;DHT22;15167;1.318;103.762;2023-03-05T15:22:16;24.60;99.90
27781;DHT22;15167;1.318;103.762;2023-03-05T15:24:42;24.60;99.90
27781;DHT22;15167;1.318;103.762;2023-03-05T15:27:08;24.70;99.90
27781;DHT22;15167;1.318;103.762;2023-03-05T15:29:35;24.70;99.90
27781;DHT22;15167;1.318;103.762;2023-03-05T15:32:01;24.70;99.90
27781;DHT22;15167;1.318;103.762;2023-03-05T15:34:28;24.70;99.90
27781;DHT22;15167;1.318;103.762;2023-03-05T15:36:54;24.70;99.90
27781;DHT22;15167;1.318;103.762;2023-03-05T15:39:21;24.70;99.90
27781;DHT22;15167;1.318;103.762;2023-03-05T15:41:49;24.70;99.90
27781;DHT22;15167;1.318;103.762;2023-03-05T15:44:16;24.70;99.90
27781;DHT22;15167;1.318;103.762;2023-03-05T15:46:42;24.70;99.90
27781;DHT22;15167;1.318;103.762;2023-03-05T15:49:08;24.70;99.90
27781;DHT22;15167;1.318;103.762;2023-03-05T15:51:34;24.60;99.90
27781;DHT22;15167;1.318;103.762;2023-03-05T15:54:00;24.60;99.90
27781;DHT22;15167;1.318;103.762;2023-03-05T15:56:26;24.70;99.90
27781;DHT22;15167;1.318;103.762;2023-03-05T15:58:52;24.60;99.90
27781;DHT22;15167;1.318;103.762;2023-03-05T16:01:18;24.60;1.00
27781;DHT22;15167;1.318;103.762;2023-03-05T16:03:45;24.60;1.00
27781;DHT22;15167;1.318;103.762;2023-03-05T16:06:12;24.60;1.00
27781;DHT22;15167;1.318;103.762;2023-03-05T16:08:40;24.60;1.00
27781;DHT22;15167;1.318;103.762;2023-03-05T16:11:08;24.60;1.00
27781;DHT22;15167;1.318;103.762;2023-03-05T16:13:35;24.50;1.00
27781;DHT22;15167;1.318;103.762;2023-03-05T16:16:02;24.50;1.00
27781;DHT22;15167;1.318;103.762;2023-03-05T16:18:29;24.50;1.00
27781;DHT22;15167;1.318;103.762;2023-03-05T16:20:56;24.50;1.00
27781;DHT22;15167;1.318;103.762;2023-03-05T16:23:23;24.50;1.00
27781;DHT22;15167;1.318;103.762;2023-03-05T16:25:49;24.50;1.00
27781;DHT22;15167;1.318;103.762;2023-03-05T16:28:15;24.50;1.00
27781;DHT22;15167;1.318;103.762;2023-03-05T16:30:42;24.50;1.00
27781;DHT22;15167;1.318;103.762;2023-03-05T16:33:08;24.50;1.00
27781;DHT22;15167;1.318;103.762;2023-03-05T16:35:34;24.40;1.00
27781;DHT22;15167;1.318;103.762;2023-03-05T16:38:00;24.50;1.00
27781;DHT22;15167;1.318;103.762;2023-03-05T16:40:27;24.50;1.00
27781;DHT22;15167;1.318;103.762;2023-03-05T16:42:53;24.50;1.00
27781;DHT22;15167;1.318;103.762;2023-03-05T16:45:19;24.50;1.00
27781;DHT22;15167;1.318;103.762;2023-03-05T16:47:46;24.50;1.00